createdAt,value
2019-04-29T00:03:11.262Z,1.53
2019-04-29T00:08:02.173Z,1.90
2019-04-29T00:12:53.082Z,1.73
2019-04-29T00:17:46.818Z,2.07
2019-04-29T00:22:37.725Z,2.40
2019-04-29T00:27:28.657Z,1.98
2019-04-29T00:32:20.443Z,1.90
2019-04-29T00:37:17.467Z,2.20
2019-04-29T00:42:08.389Z,2.00
2019-04-29T00:46:59.308Z,2.70
2019-04-29T00:51:50.223Z,2.20
2019-04-29T00:56:41.113Z,2.50
2019-04-29T01:01:32.009Z,2.30
2019-04-29T01:06:22.890Z,2.90
2019-04-29T01:11:13.761Z,2.40
2019-04-29T01:16:04.637Z,2.63
2019-04-29T01:20:56.274Z,2.60
2019-04-29T01:25:47.914Z,2.57
2019-04-29T01:30:54.516Z,3.78
2019-04-29T01:35:45.418Z,3.23
2019-04-29T01:40:38.854Z,5.07
2019-04-29T01:45:29.750Z,2.93
2019-04-29T01:50:20.647Z,3.40
2019-04-29T01:55:11.535Z,3.53
2019-04-29T02:00:02.412Z,3.20
2019-04-29T02:04:53.344Z,3.60
2019-04-29T02:09:44.234Z,3.27
2019-04-29T02:14:35.122Z,3.70
2019-04-29T02:19:33.713Z,3.30
2019-04-29T02:24:25.346Z,3.20
2019-04-29T02:29:16.975Z,4.23
2019-04-29T02:34:07.889Z,3.53
2019-04-29T02:38:59.784Z,3.90
2019-04-29T02:43:50.691Z,3.80
2019-04-29T02:48:41.582Z,4.07
2019-04-29T02:53:33.215Z,4.50
2019-04-29T02:58:26.654Z,4.90
2019-04-29T03:03:19.416Z,4.10
2019-04-29T03:08:10.303Z,4.70
2019-04-29T03:13:01.191Z,4.12
2019-04-29T03:17:52.830Z,4.80
2019-04-29T03:22:44.470Z,4.90
2019-04-29T03:27:35.359Z,4.93
2019-04-29T03:32:26.349Z,4.90
2019-04-29T03:37:17.255Z,6.10
2019-04-29T03:42:08.142Z,5.60
2019-04-29T03:46:59.770Z,6.20
2019-04-29T03:51:51.414Z,5.13
2019-04-29T03:56:42.313Z,6.20
2019-04-29T04:01:34.021Z,6.83
2019-04-29T04:06:24.939Z,6.60
2019-04-29T04:11:15.835Z,6.63
2019-04-29T04:16:06.862Z,6.03
2019-04-29T04:20:57.741Z,7.60
2019-04-29T04:25:49.367Z,6.67
2019-04-29T04:30:41.012Z,6.35
2019-04-29T04:35:32.654Z,6.00
2019-04-29T04:40:24.281Z,6.60
2019-04-29T04:45:15.901Z,7.00
2019-04-29T04:50:06.786Z,6.50
2019-04-29T04:54:57.689Z,7.10
2019-04-29T04:59:48.586Z,8.00
2019-04-29T05:04:39.477Z,7.97
2019-04-29T05:09:30.361Z,7.00
2019-04-29T05:14:21.253Z,6.60
2019-04-29T05:19:12.150Z,6.87
2019-04-29T05:24:03.786Z,6.27
2019-04-29T05:28:54.688Z,7.20
2019-04-29T05:33:45.581Z,7.00
2019-04-29T05:38:36.606Z,6.80
2019-04-29T05:43:32.038Z,7.20
2019-04-29T05:48:21.862Z,7.80
2019-04-29T05:53:16.261Z,7.43
2019-04-29T05:58:10.452Z,5.50
2019-04-29T06:03:02.081Z,7.73
2019-04-29T06:07:56.274Z,7.30
2019-04-29T06:12:44.755Z,7.25
2019-04-29T06:17:35.649Z,6.97
2019-04-29T06:22:26.537Z,7.30
2019-04-29T06:27:17.425Z,6.57
2019-04-29T06:32:08.875Z,5.93
2019-04-29T06:36:59.767Z,6.70
2019-04-29T06:41:50.678Z,7.27
2019-04-29T06:46:41.564Z,6.97
2019-04-29T06:51:32.583Z,7.20
2019-04-29T06:56:23.478Z,6.77
2019-04-29T07:01:14.395Z,5.67
2019-04-29T07:06:05.283Z,6.50
2019-04-29T07:11:01.104Z,6.00
2019-04-29T07:15:49.057Z,6.93
2019-04-29T07:20:39.637Z,12.43
2019-04-29T07:25:31.276Z,6.67
2019-04-29T07:30:22.167Z,5.87
2019-04-29T07:35:13.073Z,5.10
2019-04-29T07:40:08.156Z,5.20
2019-04-29T07:45:01.239Z,4.50
2019-04-29T07:49:53.020Z,4.20
2019-04-29T07:54:43.056Z,4.00
2019-04-29T07:59:38.474Z,4.20
2019-04-29T08:04:25.795Z,3.97
2019-04-29T08:09:16.669Z,3.97
2019-04-29T08:14:07.549Z,3.90
2019-04-29T08:18:59.178Z,3.87
2019-04-29T08:23:50.813Z,3.80
2019-04-29T08:28:42.462Z,4.77
2019-04-29T08:33:33.366Z,4.90
2019-04-29T08:38:24.996Z,5.53
2019-04-29T08:43:22.331Z,5.70
2019-04-29T08:48:12.280Z,4.93
2019-04-29T08:53:03.187Z,6.33
2019-04-29T08:57:54.804Z,5.60
2019-04-29T09:02:47.101Z,7.95
2019-04-29T09:07:36.603Z,8.07
2019-04-29T09:12:29.345Z,7.60
2019-04-29T09:17:20.501Z,7.17
2019-04-29T09:22:09.355Z,9.00
2019-04-29T09:27:05.009Z,8.70
2019-04-29T09:31:52.862Z,7.47
2019-04-29T09:36:48.079Z,9.20
2019-04-29T09:41:35.228Z,8.80
2019-04-29T09:46:30.073Z,8.60
2019-04-29T09:51:18.334Z,8.93
2019-04-29T09:56:08.208Z,12.23
2019-04-29T10:01:02.806Z,10.80
2019-04-29T10:05:54.455Z,9.40
2019-04-29T10:10:45.356Z,13.43
2019-04-29T10:15:40.848Z,9.30
2019-04-29T10:20:33.690Z,8.37
2019-04-29T10:25:25.573Z,9.60
2019-04-29T10:30:17.192Z,9.80
2019-04-29T10:35:09.244Z,8.73
2019-04-29T10:40:11.344Z,8.20
2019-04-29T10:44:57.046Z,12.50
2019-04-29T10:49:49.805Z,11.50
2019-04-29T10:54:39.595Z,10.30
2019-04-29T10:59:35.978Z,9.57
2019-04-29T11:04:22.868Z,9.10
2019-04-29T11:09:16.151Z,9.83
2019-04-29T11:14:06.969Z,10.00
2019-04-29T11:19:00.227Z,11.00
2019-04-29T11:23:50.596Z,14.57
2019-04-29T11:28:41.294Z,10.93
2019-04-29T11:33:35.609Z,12.50
2019-04-29T11:38:23.102Z,9.73
2019-04-29T11:43:15.582Z,14.83
2019-04-29T11:48:05.638Z,11.43
2019-04-29T11:53:04.180Z,11.60
2019-04-29T11:57:58.022Z,8.80
2019-04-29T12:02:49.893Z,12.47
2019-04-29T12:07:40.772Z,12.17
2019-04-29T12:12:32.408Z,9.67
2019-04-29T12:17:24.149Z,15.23
2019-04-29T12:22:28.352Z,12.05
2019-04-29T12:27:07.421Z,12.93
2019-04-29T12:31:58.304Z,9.95
2019-04-29T12:36:55.806Z,9.40
2019-04-29T12:42:04.509Z,9.13
2019-04-29T12:46:52.215Z,6.67
2019-04-29T12:51:43.849Z,7.57
2019-04-29T12:56:35.481Z,10.10
2019-04-29T13:01:50.389Z,10.65
2019-04-29T13:06:23.878Z,8.37
2019-04-29T13:11:14.735Z,10.53
2019-04-29T13:16:08.054Z,7.77
2019-04-29T13:21:09.868Z,11.00
2019-04-29T13:25:50.903Z,10.43
2019-04-29T13:30:43.327Z,7.53
2019-04-29T13:35:31.750Z,10.13
2019-04-29T13:40:22.806Z,9.27
2019-04-29T13:45:14.109Z,7.57
2019-04-29T13:50:18.119Z,7.80
2019-04-29T13:54:55.483Z,7.73
2019-04-29T13:59:51.325Z,8.93
2019-04-29T14:04:45.174Z,12.57
2019-04-29T14:09:39.262Z,6.70
2019-04-29T14:14:28.368Z,6.97
2019-04-29T14:19:20.541Z,9.63
2019-04-29T14:24:09.625Z,9.93
2019-04-29T14:29:01.251Z,13.55
2019-04-29T14:34:09.801Z,9.55
2019-04-29T14:39:01.434Z,9.40
2019-04-29T14:43:56.972Z,7.40
2019-04-29T14:48:59.437Z,8.23
2019-04-29T14:53:56.094Z,7.20
2019-04-29T14:58:38.757Z,9.85
2019-04-29T15:08:48.480Z,7.80
2019-04-29T15:13:43.157Z,10.47
2019-04-29T15:18:45.850Z,6.70
2019-04-29T15:23:30.070Z,7.67
2019-04-29T15:28:14.973Z,7.22
2019-04-29T15:33:05.872Z,7.37
2019-04-29T15:37:57.520Z,7.80
2019-04-29T15:42:50.076Z,6.97
2019-04-29T15:47:41.594Z,5.40
2019-04-29T15:52:31.010Z,5.67
2019-04-29T15:57:21.901Z,5.90
2019-04-29T16:02:13.537Z,7.43
2019-04-29T16:07:08.044Z,7.12
2019-04-29T16:12:05.157Z,6.07
2019-04-29T16:16:50.593Z,6.07
2019-04-29T16:21:42.241Z,4.73
2019-04-29T16:26:33.187Z,5.55
2019-04-29T16:31:24.111Z,5.73
2019-04-29T16:36:15.009Z,6.43
2019-04-29T16:41:06.246Z,4.90
2019-04-29T16:45:57.137Z,5.07
2019-04-29T16:50:48.780Z,7.33
2019-04-29T16:55:43.228Z,4.62
2019-04-29T17:00:30.594Z,5.70
2019-04-29T17:05:22.398Z,5.53
2019-04-29T17:10:14.266Z,5.23
2019-04-29T17:15:23.559Z,5.40
2019-04-29T17:19:56.087Z,4.13
2019-04-29T17:24:47.086Z,5.85
2019-04-29T17:29:48.811Z,4.20
2019-04-29T17:35:19.750Z,6.00
2019-04-29T17:39:24.458Z,4.40
2019-04-29T17:44:21.193Z,4.83
2019-04-29T17:49:18.241Z,4.50
2019-04-29T17:54:09.143Z,4.12
2019-04-29T17:59:00.998Z,4.47
2019-04-29T18:03:53.672Z,5.07
2019-04-29T18:08:48.558Z,4.07
2019-04-29T18:13:40.288Z,3.97
2019-04-29T18:18:45.425Z,3.50
2019-04-29T18:23:31.026Z,3.50
2019-04-29T18:28:21.913Z,4.00
2019-04-29T18:33:12.915Z,3.78
2019-04-29T18:38:07.646Z,3.53
2019-04-29T18:42:55.373Z,4.60
2019-04-29T18:47:45.692Z,5.17
2019-04-29T18:52:36.575Z,3.27
2019-04-29T18:57:30.681Z,3.45
2019-04-29T19:02:18.379Z,4.47
2019-04-29T19:07:10.018Z,3.20
2019-04-29T19:12:01.639Z,7.07
2019-04-29T19:16:52.701Z,3.60
2019-04-29T19:21:43.450Z,3.50
2019-04-29T19:26:35.046Z,4.50
2019-04-29T19:31:25.669Z,3.67
2019-04-29T19:36:18.569Z,3.60
2019-04-29T19:41:07.497Z,3.73
2019-04-29T19:45:58.396Z,3.10
2019-04-29T19:51:06.685Z,3.10
2019-04-29T19:55:42.187Z,2.87
2019-04-29T20:00:32.217Z,3.10
2019-04-29T20:05:31.701Z,3.20
2019-04-29T20:10:16.963Z,3.42
2019-04-29T20:15:08.503Z,3.50
2019-04-29T20:20:00.293Z,3.97
2019-04-29T20:24:50.749Z,3.10
2019-04-29T20:29:39.654Z,3.50
2019-04-29T20:34:30.702Z,3.13
2019-04-29T20:39:23.529Z,4.50
2019-04-29T20:44:13.154Z,3.17
2019-04-29T20:49:05.719Z,4.00
2019-04-29T20:53:58.793Z,4.13
2019-04-29T20:58:50.388Z,3.30
2019-04-29T21:03:45.228Z,3.47
2019-04-29T21:08:32.804Z,3.20
2019-04-29T21:13:29.608Z,3.10
2019-04-29T21:18:20.528Z,3.00
2019-04-29T21:23:11.419Z,2.67
2019-04-29T21:28:03.105Z,3.33
2019-04-29T21:32:55.808Z,3.57
2019-04-29T21:37:48.068Z,2.90
2019-04-29T21:42:47.088Z,3.53
2019-04-29T21:47:44.294Z,3.60
2019-04-29T21:52:27.080Z,3.30
2019-04-29T21:57:23.895Z,2.83
2019-04-29T22:02:11.526Z,4.37
2019-04-29T22:07:04.805Z,5.40
2019-04-29T22:11:51.501Z,2.93
2019-04-29T22:16:42.405Z,3.63
2019-04-29T22:21:33.296Z,6.20
2019-04-29T22:26:26.869Z,3.50
2019-04-29T22:31:18.205Z,3.33
2019-04-29T22:36:10.249Z,3.70
2019-04-29T22:40:57.683Z,2.87
2019-04-29T22:45:48.576Z,3.43
2019-04-29T22:50:39.618Z,4.20
2019-04-29T22:55:30.831Z,3.60
2019-04-29T23:00:21.291Z,3.30
2019-04-29T23:05:12.173Z,3.30
2019-04-29T23:10:05.665Z,4.07
2019-04-29T23:14:56.488Z,3.27
2019-04-29T23:19:50.230Z,2.70
2019-04-29T23:24:38.204Z,3.40
2019-04-29T23:29:29.851Z,4.43
2019-04-29T23:34:25.837Z,3.15
2019-04-29T23:39:11.783Z,4.30
2019-04-29T23:44:05.162Z,3.27
2019-04-29T23:48:56.508Z,3.87
2019-04-29T23:53:45.348Z,3.13
2019-04-29T23:58:42.941Z,4.30
